Time;durP1;ratioP1;P1;durP2;ratioP2;P2;SDS_P1;SDS_P2;PMS_P1;PMS_P2;Temp;Humidity;BMP_temperature;BMP_pressure;BME280_temperature;BME280_humidity;BME280_pressure;Samples;Min_cycle;Max_cycle;Signal;HPM_P1;HPM_P2
2023/03/24 00:01:51;;;;;;;2.37;2.27;;;;;;;10.91;83.31;100055.88;6488721;23;20247;-74
2023/03/24 00:05:16;;;;;;;2.70;2.50;;;;;;;11.01;82.67;100057.38;6247951;28;20227;-75
2023/03/24 00:08:37;;;;;;;3.03;2.50;;;;;;;10.98;82.72;100048.00;6233817;28;20227;-75
2023/03/24 00:11:58;;;;;;;2.70;1.90;;;;;;;11.05;82.43;100040.16;6233783;28;20256;-73
2023/03/24 00:15:22;;;;;;;3.37;2.00;;;;;;;11.01;82.63;100045.00;6246382;28;20720;-74
2023/03/24 00:18:44;;;;;;;3.03;2.50;;;;;;;10.96;82.89;100037.63;6221824;28;20340;-74
2023/03/24 00:22:05;;;;;;;3.67;1.97;;;;;;;11.00;82.74;100022.22;6243159;28;20239;-73
2023/03/24 00:25:28;;;;;;;3.43;2.53;;;;;;;10.99;83.18;100028.53;6247569;28;20252;-74
2023/03/24 00:28:50;;;;;;;4.23;2.43;;;;;;;11.04;83.16;100015.56;6244250;28;20323;-74
2023/03/24 00:32:12;;;;;;;2.67;2.47;;;;;;;11.05;83.63;100013.75;6235158;28;20252;-74
2023/03/24 00:35:33;;;;;;;2.20;2.00;;;;;;;11.07;83.75;100012.50;6247652;28;20216;-74
2023/03/24 00:38:56;;;;;;;2.47;2.27;;;;;;;11.09;83.70;100001.75;6234180;28;20232;-74
2023/03/24 00:42:17;;;;;;;1.50;1.40;;;;;;;11.05;83.89;99993.44;6236238;28;21045;-74
2023/03/24 00:45:44;;;;;;;2.53;1.87;;;;;;;11.10;84.14;99993.66;6229025;28;20326;-73
2023/03/24 00:49:10;;;;;;;1.50;1.40;;;;;;;11.04;84.70;99990.97;6247342;28;20614;-74
2023/03/24 00:52:33;;;;;;;1.87;1.77;;;;;;;11.02;85.01;99975.34;6218430;28;20228;-74
2023/03/24 00:55:55;;;;;;;1.87;1.37;;;;;;;11.00;85.59;99980.00;6218610;28;20543;-73
2023/03/24 00:59:16;;;;;;;2.23;2.10;;;;;;;10.92;86.43;99967.72;6247152;28;20736;-74
2023/03/24 01:02:37;;;;;;;1.80;1.70;;;;;;;10.93;86.64;99961.44;6206703;28;20785;-74
2023/03/24 01:06:03;;;;;;;3.43;2.77;;;;;;;10.92;87.46;99959.00;6211712;28;20228;-74
2023/03/24 01:09:24;;;;;;;2.50;2.30;;;;;;;10.83;88.47;99960.97;6219657;28;20602;-74
2023/03/24 01:12:45;;;;;;;1.73;1.63;;;;;;;10.84;88.77;99953.88;6197462;28;20633;-74
2023/03/24 01:16:07;;;;;;;1.70;1.50;;;;;;;10.86;88.48;99942.09;6207157;28;20347;-74
2023/03/24 01:19:29;;;;;;;4.20;2.90;;;;;;;10.93;88.37;99944.78;6221042;28;20681;-75
2023/03/24 01:22:52;;;;;;;5.90;1.63;;;;;;;10.73;89.06;99934.09;6210598;28;20232;-73
2023/03/24 01:26:14;;;;;;;2.07;1.97;;;;;;;10.75;89.63;99936.53;6196767;28;20258;-73
2023/03/24 01:29:36;;;;;;;4.83;2.33;;;;;;;10.71;89.79;99920.25;6201033;28;20232;-73
2023/03/24 01:32:57;;;;;;;2.60;2.40;;;;;;;10.72;89.92;99918.44;6202880;28;20652;-73
2023/03/24 01:36:18;;;;;;;2.03;1.60;;;;;;;10.62;90.33;99901.09;6210813;28;20267;-73
2023/03/24 01:39:41;;;;;;;4.33;1.47;;;;;;;10.68;90.71;99904.00;6221980;28;20521;-73
2023/03/24 01:43:02;;;;;;;12.50;2.83;;;;;;;10.58;90.83;99891.16;6208998;28;20626;-72
2023/03/24 01:46:25;;;;;;;1.77;1.63;;;;;;;10.55;90.92;99887.06;6194205;28;20674;-73
2023/03/24 01:49:51;;;;;;;1.53;1.40;;;;;;;10.53;90.67;99878.53;6222088;28;22396;-73
2023/03/24 01:53:14;;;;;;;2.33;2.13;;;;;;;10.58;90.74;99864.75;6182622;28;20236;-73
2023/03/24 01:56:42;;;;;;;2.97;1.80;;;;;;;10.55;90.83;99858.03;6183173;28;21338;-73
2023/03/24 02:00:09;;;;;;;1.47;1.37;;;;;;;10.63;90.56;99862.34;6213741;28;20812;-73
2023/03/24 02:04:07;;;;;;;2.67;1.90;;;;;;;10.47;91.25;99838.88;6121703;28;20250;-74
2023/03/24 02:07:33;;;;;;;1.80;1.50;;;;;;;10.49;91.12;99832.41;6195456;28;20637;-73
2023/03/24 02:10:56;;;;;;;2.10;1.90;;;;;;;10.45;90.99;99825.88;6194801;28;20977;-74
2023/03/24 02:14:21;;;;;;;1.50;1.40;;;;;;;10.46;91.36;99822.25;6216678;28;20243;-74
2023/03/24 02:17:55;;;;;;;1.50;1.30;;;;;;;10.49;91.31;99813.13;6200994;28;21847;-74
2023/03/24 02:21:49;;;;;;;1.00;1.00;;;;;;;10.45;91.14;99804.78;6208072;28;20232;-73
2023/03/24 02:25:34;;;;;;;2.80;2.30;;;;;;;10.44;91.31;99807.63;6210033;28;20256;-73
2023/03/24 02:29:12;;;;;;;2.67;2.07;;;;;;;10.46;91.57;99793.22;6185051;28;20245;-74
2023/03/24 02:33:05;;;;;;;1.50;0.97;;;;;;;10.51;91.31;99766.25;6194527;28;20228;-74
2023/03/24 02:36:58;;;;;;;1.70;1.33;;;;;;;10.37;92.04;99770.66;6187334;28;20256;-74
2023/03/24 02:40:33;;;;;;;1.53;1.30;;;;;;;10.43;91.85;99766.41;6220268;28;21695;-73
2023/03/24 02:44:06;;;;;;;1.43;1.27;;;;;;;10.51;91.68;99769.72;6205872;28;20343;-74
2023/03/24 02:47:35;;;;;;;3.63;2.73;;;;;;;10.49;91.54;99763.00;6196643;28;20260;-74
2023/03/24 02:51:04;;;;;;;2.47;1.80;;;;;;;10.43;91.60;99756.69;6214323;28;20236;-74
2023/03/24 02:54:39;;;;;;;1.90;1.37;;;;;;;10.48;91.74;99750.81;6206566;28;20236;-73
2023/03/24 02:58:06;;;;;;;3.23;1.30;;;;;;;10.41;92.10;99742.03;6207004;28;20228;-74
2023/03/24 03:01:44;;;;;;;1.60;1.50;;;;;;;10.44;92.12;99734.56;6207628;28;20228;-73
2023/03/24 03:05:34;;;;;;;1.70;1.57;;;;;;;10.44;92.12;99728.47;6221554;28;20622;-73
2023/03/24 03:08:57;;;;;;;3.03;2.83;;;;;;;10.42;92.35;99714.66;6180913;28;20685;-73
2023/03/24 03:12:21;;;;;;;1.53;1.43;;;;;;;10.46;92.28;99715.91;6201744;28;20240;-73
2023/03/24 03:15:48;;;;;;;2.60;2.23;;;;;;;10.54;92.06;99699.91;6225167;28;20228;-73
2023/03/24 03:19:16;;;;;;;1.37;1.27;;;;;;;10.41;92.80;99686.66;6204591;28;20217;-74
2023/03/24 03:22:45;;;;;;;3.60;1.37;;;;;;;10.53;92.37;99682.47;6185425;28;20233;-74
2023/03/24 03:26:11;;;;;;;2.00;1.80;;;;;;;10.55;92.37;99673.34;6212556;28;20240;-73
2023/03/24 03:29:36;;;;;;;3.93;2.73;;;;;;;10.58;92.38;99664.22;6219952;28;20232;-74
2023/03/24 03:33:05;;;;;;;1.63;1.40;;;;;;;10.56;92.69;99653.88;6191043;28;20471;-74
2023/03/24 03:36:30;;;;;;;3.23;1.70;;;;;;;10.57;92.45;99652.84;6190756;28;20240;-74
2023/03/24 03:39:56;;;;;;;1.83;1.73;;;;;;;10.61;92.78;99643.53;6216494;28;20232;-74
2023/03/24 03:43:18;;;;;;;3.83;3.07;;;;;;;10.59;92.89;99650.03;6206506;28;20232;-75
2023/03/24 03:46:39;;;;;;;1.97;1.60;;;;;;;10.54;93.21;99644.50;6217363;28;20240;-74
2023/03/24 03:50:07;;;;;;;4.40;2.07;;;;;;;10.58;93.22;99635.19;6208326;28;20511;-73
2023/03/24 03:53:35;;;;;;;2.53;2.30;;;;;;;10.62;93.09;99623.22;6210323;28;20232;-75
2023/03/24 03:56:57;;;;;;;1.43;1.33;;;;;;;10.68;92.59;99611.88;6212472;28;20231;-74
2023/03/24 04:00:21;;;;;;;2.07;1.90;;;;;;;10.82;92.24;99623.28;6201205;28;20339;-74
2023/03/24 04:04:27;;;;;;;2.80;1.50;;;;;;;10.88;92.27;99599.53;6196213;28;20244;-73
2023/03/24 04:08:25;;;;;;;1.43;1.33;;;;;;;10.91;92.29;99612.31;6195692;28;20224;-73
2023/03/24 04:12:12;;;;;;;1.83;1.73;;;;;;;10.92;92.06;99616.59;6199805;28;20681;-76
2023/03/24 04:15:55;;;;;;;1.87;1.73;;;;;;;10.96;92.21;99606.44;6200684;28;20236;-74
2023/03/24 04:19:55;;;;;;;1.70;1.60;;;;;;;10.99;92.13;99595.47;6216441;28;20726;-75
2023/03/24 04:23:29;;;;;;;1.60;1.50;;;;;;;11.01;92.46;99587.38;6191249;28;20437;-75
2023/03/24 04:26:59;;;;;;;2.07;1.90;;;;;;;11.03;92.12;99583.50;6196752;28;20518;-75
2023/03/24 04:30:31;;;;;;;1.53;1.43;;;;;;;11.13;91.75;99586.53;6203359;28;20232;-75
2023/03/24 04:34:02;;;;;;;3.40;2.93;;;;;;;11.11;92.26;99575.38;6198117;28;20240;-74
2023/03/24 04:37:25;;;;;;;1.40;1.23;;;;;;;11.11;92.55;99575.38;6194579;28;20240;-74
2023/03/24 04:40:55;;;;;;;1.63;1.53;;;;;;;11.08;92.74;99578.41;6205608;28;20306;-73
2023/03/24 04:44:20;;;;;;;1.50;1.40;;;;;;;11.01;93.11;99572.34;6203018;28;20236;-74
2023/03/24 04:48:03;;;;;;;1.53;1.43;;;;;;;11.01;93.63;99560.97;6209878;28;20216;-74
2023/03/24 04:51:31;;;;;;;2.80;2.47;;;;;;;11.01;93.99;99550.41;6197254;28;20614;-74
2023/03/24 04:55:31;;;;;;;2.50;2.30;;;;;;;10.95;94.44;99563.38;6211547;28;20232;-74
2023/03/24 04:58:53;;;;;;;5.63;2.50;;;;;;;10.91;95.20;99556.88;6207802;28;20229;-74
2023/03/24 05:02:14;;;;;;;3.40;1.53;;;;;;;10.91;95.19;99543.69;6196206;28;20232;-75
2023/03/24 05:05:48;;;;;;;1.70;1.60;;;;;;;10.92;95.22;99542.66;6221136;28;20236;-73
2023/03/24 05:09:09;;;;;;;4.03;2.10;;;;;;;10.94;95.42;99537.19;6206094;28;20610;-73
2023/03/24 05:12:30;;;;;;;1.00;0.90;;;;;;;10.99;95.12;99531.31;6194962;28;20552;-74
2023/03/24 05:16:12;;;;;;;1.53;1.43;;;;;;;11.04;95.05;99526.22;6211065;28;20582;-75
2023/03/24 05:19:40;;;;;;;2.13;1.87;;;;;;;11.07;94.87;99536.41;6206710;28;20325;-74
2023/03/24 05:23:01;;;;;;;2.30;2.17;;;;;;;11.09;94.72;99519.31;6198072;28;20426;-74
2023/03/24 05:26:23;;;;;;;1.40;1.30;;;;;;;11.16;94.66;99512.19;6200824;28;20236;-75
2023/03/24 05:30:00;;;;;;;2.67;1.87;;;;;;;11.25;94.23;99515.44;6223789;28;20654;-74
2023/03/24 05:33:24;;;;;;;1.97;1.87;;;;;;;11.27;93.89;99529.25;6201066;28;20252;-74
2023/03/24 05:36:45;;;;;;;2.23;2.03;;;;;;;11.33;93.89;99512.56;6198428;28;20232;-74
2023/03/24 05:40:09;;;;;;;2.10;1.30;;;;;;;11.37;93.54;99527.00;6210916;28;20236;-74
2023/03/24 05:43:53;;;;;;;1.63;1.53;;;;;;;11.44;93.00;99524.34;6211179;28;20256;-74
2023/03/24 05:47:15;;;;;;;2.23;2.03;;;;;;;11.44;93.55;99508.50;6203649;28;20299;-74
2023/03/24 05:50:37;;;;;;;1.50;1.40;;;;;;;11.43;93.39;99520.91;6217796;28;20233;-74
2023/03/24 05:53:57;;;;;;;1.70;1.60;;;;;;;11.48;93.58;99507.88;6194640;28;20232;-75
2023/03/24 05:57:29;;;;;;;1.97;1.87;;;;;;;11.50;93.27;99494.47;6196654;28;20240;-75
2023/03/24 06:01:17;;;;;;;1.37;1.17;;;;;;;11.55;93.06;99502.56;6198781;28;20299;-75
2023/03/24 06:04:45;;;;;;;1.87;1.33;;;;;;;11.56;93.49;99486.50;6202165;28;20319;-74
2023/03/24 06:08:11;;;;;;;2.47;1.23;;;;;;;11.54;93.16;99485.91;6190968;28;20232;-74
2023/03/24 06:11:32;;;;;;;3.23;2.43;;;;;;;11.55;93.40;99484.88;6191076;28;20316;-76
2023/03/24 06:14:59;;;;;;;1.30;1.30;;;;;;;11.71;93.50;99485.47;6202294;28;20511;-70
2023/03/24 06:18:23;;;;;;;1.70;1.47;;;;;;;11.72;93.52;99465.94;6194885;28;20598;-68
2023/03/24 06:21:49;;;;;;;1.37;1.27;;;;;;;11.57;93.99;99471.47;6187969;28;20233;-73
2023/03/24 06:25:12;;;;;;;1.90;1.80;;;;;;;11.53;94.47;99478.19;6184234;28;20237;-75
2023/03/24 06:28:38;;;;;;;1.70;1.60;;;;;;;11.56;94.11;99481.22;6200031;28;20236;-73
2023/03/24 06:32:05;;;;;;;1.37;1.27;;;;;;;11.56;94.82;99490.97;6196986;28;20237;-74
2023/03/24 06:35:31;;;;;;;1.13;1.03;;;;;;;11.63;94.11;99489.94;6197525;28;20228;-73
2023/03/24 06:39:06;;;;;;;2.07;1.87;;;;;;;11.63;93.96;99492.59;6194392;28;20232;-76
2023/03/24 06:42:29;;;;;;;1.40;1.10;;;;;;;11.70;93.69;99495.22;6167921;28;20261;-74
2023/03/24 06:45:50;;;;;;;1.20;1.10;;;;;;;11.80;93.40;99514.13;6209085;28;20244;-75
2023/03/24 06:49:15;;;;;;;0.90;0.90;;;;;;;11.77;93.45;99500.50;6185532;28;20232;-77
2023/03/24 06:52:36;;;;;;;1.30;1.10;;;;;;;11.84;92.89;99499.47;6171032;28;20224;-74
2023/03/24 06:55:57;;;;;;;1.60;1.50;;;;;;;11.96;92.04;99504.91;6166390;28;20228;-75
2023/03/24 06:59:23;;;;;;;1.13;1.10;;;;;;;12.05;91.70;99514.22;6175993;28;20789;-74
2023/03/24 07:02:45;;;;;;;1.17;1.07;;;;;;;12.06;91.68;99510.56;6167838;28;20225;-76
2023/03/24 07:06:06;;;;;;;0.83;0.83;;;;;;;12.02;92.68;99516.47;6188499;28;20228;-74
2023/03/24 07:09:26;;;;;;;1.00;1.00;;;;;;;11.96;92.70;99526.06;6189548;28;20239;-73
2023/03/24 07:12:48;;;;;;;1.43;1.33;;;;;;;11.96;92.83;99528.72;6178556;28;20306;-74
2023/03/24 07:16:10;;;;;;;1.73;1.63;;;;;;;11.94;93.06;99551.91;6175525;28;20323;-74
2023/03/24 07:19:33;;;;;;;1.73;1.63;;;;;;;11.98;90.57;99559.19;6185309;28;20232;-74
2023/03/24 07:23:13;;;;;;;0.60;0.60;;;;;;;11.96;86.87;99568.38;6200345;28;20241;-75
2023/03/24 07:26:53;;;;;;;0.73;0.73;;;;;;;12.00;84.08;99580.16;6212703;28;20596;-75
2023/03/24 07:30:17;;;;;;;3.33;0.70;;;;;;;12.13;82.81;99596.00;6216956;28;20221;-77
2023/03/24 07:33:40;;;;;;;0.57;0.57;;;;;;;12.20;82.94;99588.81;6201089;28;20240;-77
2023/03/24 07:37:01;;;;;;;1.03;0.87;;;;;;;12.15;81.05;99614.28;6200514;28;20601;-73
2023/03/24 07:40:22;;;;;;;0.67;0.67;;;;;;;12.11;81.71;99610.44;6213324;28;20264;-77
2023/03/24 07:43:43;;;;;;;0.63;0.63;;;;;;;12.12;81.18;99620.00;6206990;28;20233;-74
2023/03/24 07:47:18;;;;;;;5.20;3.13;;;;;;;12.14;81.04;99621.41;6195602;28;20712;-75
2023/03/24 07:50:42;;;;;;;0.93;0.93;;;;;;;12.13;81.68;99625.09;6198580;28;20248;-74
2023/03/24 07:54:37;;;;;;;2.50;1.87;;;;;;;11.96;80.71;99645.06;6202938;28;20228;-73
2023/03/24 07:57:58;;;;;;;1.57;0.90;;;;;;;12.04;79.10;99654.59;6192463;28;20251;-73
2023/03/24 08:01:21;;;;;;;2.40;1.00;;;;;;;12.08;76.46;99658.47;6187808;28;20229;-74
2023/03/24 08:04:44;;;;;;;1.97;1.20;;;;;;;12.18;76.97;99664.16;6220242;28;20237;-77
2023/03/24 08:08:20;;;;;;;0.97;0.97;;;;;;;12.09;76.28;99679.41;6190215;28;20229;-74
2023/03/24 08:11:41;;;;;;;3.37;0.90;;;;;;;12.04;75.71;99660.69;6215938;28;20236;-72
2023/03/24 08:15:02;;;;;;;1.57;1.07;;;;;;;12.04;76.62;99679.22;6225884;28;20319;-77
2023/03/24 08:18:24;;;;;;;2.53;1.00;;;;;;;12.19;76.26;99686.94;6197643;28;20475;-76
2023/03/24 08:21:45;;;;;;;2.87;1.80;;;;;;;12.44;74.67;99685.22;6208034;28;20615;-74
2023/03/24 08:25:08;;;;;;;5.00;1.00;;;;;;;12.47;74.98;99700.69;6227092;28;20232;-73
2023/03/24 08:28:30;;;;;;;0.83;0.83;;;;;;;12.72;74.13;99715.88;6200216;28;20244;-74
2023/03/24 08:31:51;;;;;;;2.20;1.20;;;;;;;12.64;73.21;99736.28;6210447;28;20491;-74
2023/03/24 08:35:13;;;;;;;2.53;1.37;;;;;;;12.54;72.35;99730.59;6231566;28;20304;-74
2023/03/24 08:38:37;;;;;;;1.33;1.10;;;;;;;12.26;71.85;99735.34;6223847;28;20220;-72
2023/03/24 08:41:59;;;;;;;1.13;1.03;;;;;;;12.31;72.13;99749.59;6217980;28;20236;-72
2023/03/24 08:45:22;;;;;;;5.13;1.00;;;;;;;12.16;71.77;99761.41;6227585;28;20228;-72
2023/03/24 08:48:43;;;;;;;1.87;1.37;;;;;;;12.22;72.00;99768.50;6194946;28;20852;-71
2023/03/24 08:52:04;;;;;;;1.47;1.33;;;;;;;12.18;70.31;99762.03;6205723;28;20614;-71
2023/03/24 08:55:25;;;;;;;1.10;1.00;;;;;;;12.34;69.60;99756.28;6225733;28;20236;-74
2023/03/24 08:58:50;;;;;;;1.13;1.07;;;;;;;12.71;68.94;99765.34;6222403;28;20225;-74
2023/03/24 09:02:12;;;;;;;1.63;1.30;;;;;;;12.66;67.92;99768.63;6206877;28;20221;-73
2023/03/24 09:05:32;;;;;;;2.67;1.00;;;;;;;12.25;68.46;99771.56;6224784;28;20237;-72
2023/03/24 09:08:53;;;;;;;3.43;1.77;;;;;;;12.10;68.53;99765.69;6210576;28;20327;-73
2023/03/24 09:12:15;;;;;;;2.47;2.27;;;;;;;12.10;68.85;99791.31;6222833;28;20236;-72
2023/03/24 09:15:37;;;;;;;1.40;1.37;;;;;;;12.16;68.79;99793.97;6220868;28;20237;-73
2023/03/24 09:18:59;;;;;;;2.50;1.40;;;;;;;12.20;68.58;99800.47;6228556;28;20236;-73
2023/03/24 09:22:20;;;;;;;1.13;1.03;;;;;;;12.12;69.49;99797.22;6215364;28;20228;-73
2023/03/24 09:25:41;;;;;;;2.30;2.03;;;;;;;12.18;69.15;99802.53;6221740;28;20240;-74
2023/03/24 09:29:02;;;;;;;1.97;1.63;;;;;;;12.46;68.70;99812.84;6228364;28;20233;-78
2023/03/24 09:32:24;;;;;;;0.60;0.60;;;;;;;12.50;68.39;99811.44;6194576;28;20241;-72
2023/03/24 09:35:45;;;;;;;0.80;0.80;;;;;;;12.35;68.46;99810.03;6202519;28;20541;-72
2023/03/24 09:39:06;;;;;;;1.70;1.60;;;;;;;12.22;68.25;99824.88;6227849;28;20240;-71
2023/03/24 09:42:32;;;;;;;1.97;1.77;;;;;;;12.17;67.99;99837.94;6211973;28;20233;-73
2023/03/24 09:45:56;;;;;;;2.40;1.33;;;;;;;12.82;67.25;99841.53;6220492;28;20236;-73
2023/03/24 09:49:24;;;;;;;1.17;1.00;;;;;;;12.47;66.57;99821.59;6224644;28;20228;-75
2023/03/24 09:52:49;;;;;;;2.10;1.20;;;;;;;12.35;63.17;99834.66;6205326;28;22519;-74
2023/03/24 09:56:14;;;;;;;1.83;1.73;;;;;;;12.21;63.29;99849.72;6208595;28;20233;-74
2023/03/24 09:59:37;;;;;;;6.23;1.27;;;;;;;12.19;63.64;99859.72;6231003;28;20308;-75
2023/03/24 10:03:01;;;;;;;3.43;1.57;;;;;;;12.07;64.00;99847.28;6199340;28;21674;-75
2023/03/24 10:06:26;;;;;;;3.87;1.73;;;;;;;12.10;64.22;99849.53;6202219;28;20240;-73
2023/03/24 10:09:51;;;;;;;1.33;1.13;;;;;;;12.09;64.77;99861.94;6213082;28;20275;-72
2023/03/24 10:13:19;;;;;;;4.67;1.60;;;;;;;11.96;64.97;99851.34;6222214;28;20815;-74
2023/03/24 10:16:48;;;;;;;4.70;2.73;;;;;;;12.06;64.81;99882.66;6212883;28;20319;-74
2023/03/24 10:20:20;;;;;;;2.53;1.20;;;;;;;12.85;62.68;99849.06;6208442;28;20232;-73
2023/03/24 10:23:49;;;;;;;1.77;1.00;;;;;;;13.82;59.27;99848.03;6190909;28;20239;-72
2023/03/24 10:27:17;;;;;;;6.33;1.37;;;;;;;13.45;59.22;99864.78;6208947;28;20323;-76
2023/03/24 10:30:42;;;;;;;3.57;2.30;;;;;;;13.28;59.30;99857.31;6226709;28;20224;-72
2023/03/24 10:34:04;;;;;;;4.67;2.10;;;;;;;13.23;60.11;99857.13;6226900;28;20248;-71
2023/03/24 10:37:27;;;;;;;7.83;1.73;;;;;;;13.38;59.50;99854.19;6214987;28;20224;-71
2023/03/24 10:40:49;;;;;;;3.90;1.00;;;;;;;13.58;57.68;99852.25;6230181;28;20233;-75
2023/03/24 10:44:12;;;;;;;1.83;1.23;;;;;;;13.12;57.60;99872.81;6221690;28;21131;-75
2023/03/24 10:47:35;;;;;;;3.13;1.27;;;;;;;13.08;58.64;99861.81;6216189;28;20644;-74
2023/03/24 10:50:58;;;;;;;2.20;0.93;;;;;;;12.80;59.31;99861.28;6212982;28;20249;-72
2023/03/24 10:54:21;;;;;;;2.73;1.57;;;;;;;12.95;59.55;99867.16;6221626;28;20240;-72
2023/03/24 10:57:46;;;;;;;1.97;1.13;;;;;;;12.75;60.17;99884.91;6192672;28;20229;-73
2023/03/24 11:01:20;;;;;;;1.63;1.20;;;;;;;16.17;49.65;99875.19;6202307;28;20244;-74
2023/03/24 11:04:44;;;;;;;2.57;1.00;;;;;;;17.53;43.55;99874.78;6220002;28;20228;-73
2023/03/24 11:08:27;;;;;;;1.97;1.23;;;;;;;17.47;43.88;99880.25;6204832;28;20233;-72
2023/03/24 11:11:49;;;;;;;3.58;1.15;;;;;;;15.38;48.07;99906.31;6219692;28;20232;-73
2023/03/24 11:15:20;;;;;;;4.65;1.13;;;;;;;19.91;38.54;99896.25;6226671;28;20311;-74
2023/03/24 11:18:56;;;;;;;1.17;0.88;;;;;;;17.30;42.05;99902.31;6188334;28;20751;-73
2023/03/24 11:22:17;;;;;;;4.57;2.22;;;;;;;18.97;39.51;99901.81;6212387;28;20240;-74
2023/03/24 11:25:40;;;;;;;1.70;1.00;;;;;;;15.71;46.41;99904.09;6228263;28;20318;-72
2023/03/24 11:29:03;;;;;;;2.40;1.50;;;;;;;19.60;36.91;99910.41;6223793;28;20634;-75
2023/03/24 11:32:28;;;;;;;0.80;0.65;;;;;;;19.00;38.21;99912.00;6187766;28;20233;-73
2023/03/24 11:35:49;;;;;;;3.03;1.50;;;;;;;21.56;33.20;99903.31;6216670;28;20236;-75
2023/03/24 11:39:12;;;;;;;1.52;1.05;;;;;;;17.99;38.85;99889.81;6220641;28;20232;-72
2023/03/24 11:42:33;;;;;;;2.30;1.30;;;;;;;15.96;45.27;99901.28;6208293;28;20235;-72
2023/03/24 11:46:00;;;;;;;1.77;0.93;;;;;;;18.74;38.85;99926.88;6220703;28;20232;-73
2023/03/24 11:49:27;;;;;;;2.92;1.77;;;;;;;19.78;36.37;99891.31;6225944;28;20244;-72
2023/03/24 11:52:52;;;;;;;4.68;1.80;;;;;;;20.39;34.66;99892.69;6190648;28;20241;-72
2023/03/24 11:56:25;;;;;;;3.38;2.35;;;;;;;18.87;37.68;99914.22;6204253;28;20229;-69
2023/03/24 11:59:50;;;;;;;1.50;1.00;;;;;;;15.92;44.74;99916.09;6212819;28;20284;-72
2023/03/24 12:03:54;;;;;;;4.15;1.80;;;;;;;17.47;41.90;99913.06;6210452;28;20227;-71
2023/03/24 12:07:41;;;;;;;4.03;2.15;;;;;;;15.64;45.04;99916.66;6213196;28;20654;-72
2023/03/24 12:11:14;;;;;;;7.22;2.05;;;;;;;15.45;45.99;99920.34;6214375;28;20228;-69
2023/03/24 12:14:47;;;;;;;5.00;1.40;;;;;;;19.95;35.26;99931.38;6214593;28;20240;-69
2023/03/24 12:18:43;;;;;;;6.75;1.90;;;;;;;16.74;42.19;99930.41;6207427;28;20653;-69
2023/03/24 12:22:17;;;;;;;3.55;1.55;;;;;;;14.72;48.49;99930.91;6139924;28;20232;-72
2023/03/24 12:25:48;;;;;;;8.50;2.17;;;;;;;14.81;49.17;99928.78;6213383;28;20231;-73
2023/03/24 12:29:38;;;;;;;5.93;1.73;;;;;;;17.09;44.24;99909.09;6217126;28;20294;-74
2023/03/24 12:33:13;;;;;;;5.10;2.60;;;;;;;18.60;39.41;99928.25;6196509;28;20240;-79
2023/03/24 12:36:45;;;;;;;5.65;1.98;;;;;;;19.09;37.52;99923.91;6213885;28;20232;-79
2023/03/24 12:40:54;;;;;;;3.55;2.67;;;;;;;19.06;38.61;99923.59;6231247;28;20228;-79
2023/03/24 12:44:43;;;;;;;4.90;1.90;;;;;;;17.77;40.59;99913.69;6151609;28;20396;-79
2023/03/24 12:48:21;;;;;;;3.20;1.77;;;;;;;16.15;45.10;99923.34;6155777;28;21080;-73
2023/03/24 12:51:48;;;;;;;6.88;1.92;;;;;;;15.28;48.24;99924.63;6203991;28;20222;-73
2023/03/24 12:55:13;;;;;;;5.82;2.00;;;;;;;14.77;49.37;99938.22;6202635;28;20248;-74
2023/03/24 12:58:42;;;;;;;5.00;2.20;;;;;;;15.25;51.50;99941.84;6205036;28;20236;-72
2023/03/24 13:02:12;;;;;;;4.85;2.58;;;;;;;20.67;35.85;99931.81;6197710;28;20227;-76
2023/03/24 13:05:37;;;;;;;3.08;1.73;;;;;;;21.74;32.45;99924.31;6219806;28;20327;-76
2023/03/24 13:09:13;;;;;;;3.70;2.40;;;;;;;16.87;42.57;99929.38;6172945;28;20599;-74
2023/03/24 13:12:40;;;;;;;3.05;1.40;;;;;;;18.31;39.01;99922.13;6204665;28;20224;-74
2023/03/24 13:16:08;;;;;;;3.83;1.85;;;;;;;21.02;33.67;99925.03;6189508;28;20504;-74
2023/03/24 13:19:30;;;;;;;3.45;1.52;;;;;;;20.40;33.13;99918.44;6204401;28;20279;-73
2023/03/24 13:22:52;;;;;;;2.55;1.05;;;;;;;18.65;33.33;99917.66;6193776;28;20252;-75
2023/03/24 13:26:23;;;;;;;1.90;1.35;;;;;;;19.28;32.04;99934.31;6171326;28;20229;-74
2023/03/24 13:30:23;;;;;;;1.10;1.00;;;;;;;17.66;35.49;99924.41;6213745;28;20288;-68
2023/03/24 13:33:45;;;;;;;5.07;2.40;;;;;;;18.41;33.52;99916.16;6205067;28;20228;-67
2023/03/24 13:37:11;;;;;;;3.05;1.77;;;;;;;18.70;33.10;99924.94;6204413;28;20241;-68
2023/03/24 13:40:38;;;;;;;9.05;1.38;;;;;;;18.68;33.17;99930.53;6215155;28;20224;-69
2023/03/24 13:44:01;;;;;;;5.15;1.73;;;;;;;18.96;32.33;99916.25;6218766;28;20237;-69
2023/03/24 13:47:21;;;;;;;2.90;1.70;;;;;;;20.81;30.03;99916.06;6210326;28;20307;-69
2023/03/24 13:50:54;;;;;;;4.13;1.17;;;;;;;20.93;28.75;99921.25;6234163;28;20232;-68
2023/03/24 13:54:19;;;;;;;2.35;1.55;;;;;;;20.22;32.88;99918.00;6230206;28;20635;-67
2023/03/24 13:57:41;;;;;;;4.47;1.98;;;;;;;16.91;33.77;99921.75;6195465;28;20271;-69
2023/03/24 14:01:16;;;;;;;4.93;0.85;;;;;;;15.78;37.45;99917.31;6209221;28;20225;-69
2023/03/24 14:04:49;;;;;;;2.95;1.58;;;;;;;18.78;32.81;99917.31;6224282;28;20973;-68
2023/03/24 14:08:14;;;;;;;3.08;1.00;;;;;;;20.47;29.14;99907.53;6181779;28;20243;-68
2023/03/24 14:11:49;;;;;;;1.92;1.20;;;;;;;19.44;29.66;99912.03;6190417;28;20236;-67
2023/03/24 14:15:17;;;;;;;5.35;1.60;;;;;;;20.67;27.85;99915.72;6200306;28;20237;-68
2023/03/24 14:18:42;;;;;;;3.60;1.23;;;;;;;21.29;28.79;99914.22;6183723;28;20254;-69
2023/03/24 14:22:10;;;;;;;3.80;2.10;;;;;;;20.61;28.13;99914.06;6192781;28;20235;-67
2023/03/24 14:25:35;;;;;;;3.33;1.30;;;;;;;18.49;31.56;99915.75;6197015;28;20822;-65
2023/03/24 14:28:57;;;;;;;2.75;1.33;;;;;;;19.59;31.77;99919.47;6198270;28;20234;-67
2023/03/24 14:32:21;;;;;;;1.95;1.75;;;;;;;20.08;30.52;99931.81;6186148;28;20599;-68
2023/03/24 14:35:47;;;;;;;2.85;1.92;;;;;;;19.22;34.62;99930.75;6211716;28;20229;-67
2023/03/24 14:39:26;;;;;;;3.92;2.15;;;;;;;18.27;34.86;99920.22;6213357;28;20781;-67
2023/03/24 14:43:12;;;;;;;8.23;3.65;;;;;;;19.41;32.97;99917.91;6205351;28;20228;-68
2023/03/24 14:46:41;;;;;;;2.50;1.05;;;;;;;16.93;38.02;99927.66;6206602;28;20267;-68
2023/03/24 14:50:12;;;;;;;1.30;1.08;;;;;;;16.99;35.60;99937.38;6214696;28;20314;-68
2023/03/24 14:53:37;;;;;;;3.17;1.38;;;;;;;17.51;35.18;99926.75;6210473;28;20240;-67
2023/03/24 14:56:59;;;;;;;3.17;1.60;;;;;;;16.81;34.30;99916.97;6214527;28;20228;-67
2023/03/24 15:00:28;;;;;;;2.20;1.30;;;;;;;16.80;32.79;99919.88;6217698;28;21279;-67
2023/03/24 15:03:55;;;;;;;2.15;1.25;;;;;;;16.36;33.07;99928.13;6208390;28;20220;-73
2023/03/24 15:07:16;;;;;;;2.60;0.82;;;;;;;15.77;33.72;99933.50;6207102;28;20247;-76
2023/03/24 15:10:43;;;;;;;2.20;1.43;;;;;;;16.36;33.52;99911.34;6227797;28;20236;-77
2023/03/24 15:14:07;;;;;;;1.73;1.10;;;;;;;16.13;32.32;99920.09;6229509;28;20278;-76
2023/03/24 15:17:30;;;;;;;2.00;1.50;;;;;;;16.27;31.67;99921.50;6200453;28;20230;-75
2023/03/24 15:20:52;;;;;;;2.40;1.20;;;;;;;16.72;31.32;99929.00;6212354;28;20247;-76
2023/03/24 15:24:29;;;;;;;1.60;1.27;;;;;;;16.60;31.67;99928.19;6234210;28;20783;-75
2023/03/24 15:27:50;;;;;;;2.77;1.20;;;;;;;15.82;32.42;99925.63;6218077;28;20237;-75
2023/03/24 15:31:13;;;;;;;5.50;1.17;;;;;;;15.76;32.48;99922.03;6212481;28;20235;-74
2023/03/24 15:34:39;;;;;;;3.30;1.50;;;;;;;15.37;33.23;99940.06;6230217;28;20371;-75
2023/03/24 15:38:00;;;;;;;2.47;1.47;;;;;;;15.73;33.15;99911.84;6190223;28;20233;-76
2023/03/24 15:41:23;;;;;;;3.53;2.30;;;;;;;15.91;33.33;99911.00;6198299;28;20678;-76
2023/03/24 15:44:44;;;;;;;2.70;1.10;;;;;;;15.43;34.16;99927.72;6196243;28;20560;-74
2023/03/24 15:48:11;;;;;;;0.97;0.93;;;;;;;15.33;35.28;99920.28;6188092;28;20779;-75
2023/03/24 15:51:59;;;;;;;3.50;0.73;;;;;;;15.21;35.70;99921.22;6208730;28;21007;-77
2023/03/24 15:55:33;;;;;;;3.20;1.00;;;;;;;15.01;36.44;99902.84;6226278;28;20257;-76
2023/03/24 15:58:56;;;;;;;2.97;1.40;;;;;;;15.25;37.55;99912.59;6205059;28;20638;-74
2023/03/24 16:02:33;;;;;;;6.17;3.10;;;;;;;15.71;35.86;99905.94;6193712;28;20857;-76
2023/03/24 16:05:55;;;;;;;3.10;1.57;;;;;;;15.97;36.13;99902.91;6210375;28;20260;-75
2023/03/24 16:09:21;;;;;;;3.33;1.37;;;;;;;15.86;35.88;99908.19;6205858;28;20228;-77
2023/03/24 16:12:42;;;;;;;5.80;2.27;;;;;;;15.62;37.36;99909.94;6176498;28;20546;-75
2023/03/24 16:16:11;;;;;;;3.17;1.67;;;;;;;15.28;37.69;99920.13;6196857;28;20526;-74
2023/03/24 16:19:32;;;;;;;1.73;1.63;;;;;;;15.29;38.40;99911.13;6207626;28;20232;-74